sensor_id;sensor_type;location;lat;lon;timestamp;pressure;altitude;pressure_sealevel;temperature
12409;BMP180;6268;48.188;17.134;2023-05-10T00:02:02;49646.84;;;-134.68
12409;BMP180;6268;48.188;17.134;2023-05-10T00:04:31;49646.84;;;-134.68
12409;BMP180;6268;48.188;17.134;2023-05-10T00:07:00;49642.94;;;-134.68
12409;BMP180;6268;48.188;17.134;2023-05-10T00:09:28;49646.84;;;-134.68
12409;BMP180;6268;48.188;17.134;2023-05-10T00:11:59;49646.84;;;-134.68
12409;BMP180;6268;48.188;17.134;2023-05-10T00:14:27;49646.84;;;-134.68
12409;BMP180;6268;48.188;17.134;2023-05-10T00:16:56;49646.84;;;-134.68
12409;BMP180;6268;48.188;17.134;2023-05-10T00:19:25;49646.84;;;-134.68
12409;BMP180;6268;48.188;17.134;2023-05-10T00:21:54;49646.84;;;-134.68
12409;BMP180;6268;48.188;17.134;2023-05-10T00:24:23;49646.84;;;-134.68
12409;BMP180;6268;48.188;17.134;2023-05-10T00:26:52;49646.84;;;-134.68
12409;BMP180;6268;48.188;17.134;2023-05-10T00:29:22;49644.88;;;-134.68
12409;BMP180;6268;48.188;17.134;2023-05-10T00:31:51;49644.88;;;-134.68
12409;BMP180;6268;48.188;17.134;2023-05-10T00:34:20;49644.88;;;-134.68
12409;BMP180;6268;48.188;17.134;2023-05-10T00:36:49;49646.84;;;-134.68
12409;BMP180;6268;48.188;17.134;2023-05-10T00:39:17;49646.84;;;-134.68
12409;BMP180;6268;48.188;17.134;2023-05-10T00:41:46;49646.84;;;-134.68
12409;BMP180;6268;48.188;17.134;2023-05-10T00:44:15;49646.84;;;-134.68
12409;BMP180;6268;48.188;17.134;2023-05-10T00:46:46;49646.84;;;-134.68
12409;BMP180;6268;48.188;17.134;2023-05-10T00:49:16;49646.84;;;-134.68
12409;BMP180;6268;48.188;17.134;2023-05-10T00:51:44;49644.88;;;-134.68
12409;BMP180;6268;48.188;17.134;2023-05-10T00:54:15;49644.88;;;-134.68
12409;BMP180;6268;48.188;17.134;2023-05-10T00:56:44;49648.78;;;-134.68
12409;BMP180;6268;48.188;17.134;2023-05-10T00:59:16;49644.88;;;-134.68
12409;BMP180;6268;48.188;17.134;2023-05-10T01:01:47;49646.84;;;-134.68
12409;BMP180;6268;48.188;17.134;2023-05-10T01:04:16;49646.84;;;-134.68
12409;BMP180;6268;48.188;17.134;2023-05-10T01:06:45;49642.94;;;-134.68
12409;BMP180;6268;48.188;17.134;2023-05-10T01:09:14;49646.84;;;-134.68
12409;BMP180;6268;48.188;17.134;2023-05-10T01:11:43;49646.84;;;-134.68
12409;BMP180;6268;48.188;17.134;2023-05-10T01:14:12;49646.84;;;-134.68
12409;BMP180;6268;48.188;17.134;2023-05-10T01:16:42;49644.88;;;-134.68
12409;BMP180;6268;48.188;17.134;2023-05-10T01:19:18;49646.84;;;-134.68
12409;BMP180;6268;48.188;17.134;2023-05-10T01:22:09;49646.84;;;-134.68
12409;BMP180;6268;48.188;17.134;2023-05-10T01:25:19;49646.84;;;-134.68
12409;BMP180;6268;48.188;17.134;2023-05-10T01:31:26;49646.84;;;-134.68
12409;BMP180;6268;48.188;17.134;2023-05-10T01:34:06;49646.84;;;-134.68
12409;BMP180;6268;48.188;17.134;2023-05-10T01:36:45;49646.84;;;-134.68
12409;BMP180;6268;48.188;17.134;2023-05-10T01:39:24;49646.84;;;-134.68
12409;BMP180;6268;48.188;17.134;2023-05-10T01:42:02;49644.88;;;-134.68
12409;BMP180;6268;48.188;17.134;2023-05-10T01:44:38;49644.88;;;-134.68
12409;BMP180;6268;48.188;17.134;2023-05-10T01:47:13;49644.88;;;-134.68
12409;BMP180;6268;48.188;17.134;2023-05-10T01:49:50;49646.84;;;-134.68
12409;BMP180;6268;48.188;17.134;2023-05-10T01:52:26;49646.84;;;-134.68
12409;BMP180;6268;48.188;17.134;2023-05-10T01:55:02;49648.78;;;-134.68
12409;BMP180;6268;48.188;17.134;2023-05-10T01:57:35;49642.94;;;-134.68
12409;BMP180;6268;48.188;17.134;2023-05-10T02:00:09;49646.84;;;-134.68
12409;BMP180;6268;48.188;17.134;2023-05-10T02:02:40;49646.84;;;-134.68
12409;BMP180;6268;48.188;17.134;2023-05-10T02:05:14;49644.88;;;-134.68
12409;BMP180;6268;48.188;17.134;2023-05-10T02:07:44;49646.84;;;-134.68
12409;BMP180;6268;48.188;17.134;2023-05-10T02:10:14;49644.88;;;-134.68
12409;BMP180;6268;48.188;17.134;2023-05-10T02:12:47;49646.84;;;-134.68
12409;BMP180;6268;48.188;17.134;2023-05-10T02:15:21;49644.88;;;-134.68
12409;BMP180;6268;48.188;17.134;2023-05-10T02:17:55;49646.84;;;-134.68
12409;BMP180;6268;48.188;17.134;2023-05-10T02:20:26;49644.88;;;-134.68
12409;BMP180;6268;48.188;17.134;2023-05-10T02:22:57;49646.84;;;-134.68
12409;BMP180;6268;48.188;17.134;2023-05-10T02:25:28;49646.84;;;-134.68
12409;BMP180;6268;48.188;17.134;2023-05-10T02:28:00;49646.84;;;-134.68
12409;BMP180;6268;48.188;17.134;2023-05-10T02:30:32;49646.84;;;-134.68
12409;BMP180;6268;48.188;17.134;2023-05-10T02:33:03;49646.84;;;-134.68
12409;BMP180;6268;48.188;17.134;2023-05-10T02:35:35;49648.78;;;-134.68
12409;BMP180;6268;48.188;17.134;2023-05-10T02:38:07;49644.88;;;-134.68
12409;BMP180;6268;48.188;17.134;2023-05-10T02:40:38;49646.84;;;-134.68
12409;BMP180;6268;48.188;17.134;2023-05-10T02:43:12;49644.88;;;-134.68
12409;BMP180;6268;48.188;17.134;2023-05-10T02:45:43;49646.84;;;-134.68
12409;BMP180;6268;48.188;17.134;2023-05-10T02:48:13;49646.84;;;-134.68
12409;BMP180;6268;48.188;17.134;2023-05-10T02:50:45;49646.84;;;-134.68
12409;BMP180;6268;48.188;17.134;2023-05-10T02:53:23;49644.88;;;-134.68
12409;BMP180;6268;48.188;17.134;2023-05-10T02:56:00;49648.78;;;-134.68
12409;BMP180;6268;48.188;17.134;2023-05-10T02:58:31;49642.94;;;-134.68
12409;BMP180;6268;48.188;17.134;2023-05-10T03:01:00;49642.94;;;-134.68
12409;BMP180;6268;48.188;17.134;2023-05-10T03:03:29;49644.88;;;-134.68
12409;BMP180;6268;48.188;17.134;2023-05-10T03:05:59;49644.88;;;-134.68
12409;BMP180;6268;48.188;17.134;2023-05-10T03:08:28;49646.84;;;-134.68
12409;BMP180;6268;48.188;17.134;2023-05-10T03:11:22;49644.88;;;-134.68
12409;BMP180;6268;48.188;17.134;2023-05-10T03:14:08;49646.84;;;-134.68
12409;BMP180;6268;48.188;17.134;2023-05-10T03:16:44;49642.94;;;-134.68
12409;BMP180;6268;48.188;17.134;2023-05-10T03:19:23;49646.84;;;-134.68
12409;BMP180;6268;48.188;17.134;2023-05-10T03:21:59;49648.78;;;-134.68
12409;BMP180;6268;48.188;17.134;2023-05-10T03:24:35;49646.84;;;-134.68
12409;BMP180;6268;48.188;17.134;2023-05-10T03:27:07;49644.88;;;-134.68
12409;BMP180;6268;48.188;17.134;2023-05-10T03:29:37;49646.84;;;-134.68
12409;BMP180;6268;48.188;17.134;2023-05-10T03:32:06;49648.78;;;-134.68
12409;BMP180;6268;48.188;17.134;2023-05-10T03:34:42;49644.88;;;-134.68
12409;BMP180;6268;48.188;17.134;2023-05-10T03:37:12;49644.88;;;-134.68
12409;BMP180;6268;48.188;17.134;2023-05-10T03:39:41;49646.84;;;-134.68
12409;BMP180;6268;48.188;17.134;2023-05-10T03:42:09;49646.84;;;-134.68
12409;BMP180;6268;48.188;17.134;2023-05-10T03:44:39;49646.84;;;-134.68
12409;BMP180;6268;48.188;17.134;2023-05-10T03:47:08;49646.84;;;-134.68
12409;BMP180;6268;48.188;17.134;2023-05-10T03:49:37;49648.78;;;-134.68
12409;BMP180;6268;48.188;17.134;2023-05-10T03:52:05;49646.84;;;-134.68
12409;BMP180;6268;48.188;17.134;2023-05-10T03:54:36;49644.88;;;-134.68
12409;BMP180;6268;48.188;17.134;2023-05-10T03:57:05;49646.84;;;-134.68
12409;BMP180;6268;48.188;17.134;2023-05-10T03:59:33;49646.84;;;-134.68
12409;BMP180;6268;48.188;17.134;2023-05-10T04:02:02;49646.84;;;-134.68
12409;BMP180;6268;48.188;17.134;2023-05-10T04:04:31;49646.84;;;-134.68
12409;BMP180;6268;48.188;17.134;2023-05-10T04:07:00;49642.94;;;-134.68
12409;BMP180;6268;48.188;17.134;2023-05-10T04:09:28;49646.84;;;-134.68
12409;BMP180;6268;48.188;17.134;2023-05-10T04:11:59;49644.88;;;-134.68
12409;BMP180;6268;48.188;17.134;2023-05-10T04:14:29;49646.84;;;-134.68
12409;BMP180;6268;48.188;17.134;2023-05-10T04:16:58;49648.78;;;-134.68
12409;BMP180;6268;48.188;17.134;2023-05-10T04:19:29;49646.84;;;-134.68
12409;BMP180;6268;48.188;17.134;2023-05-10T04:21:58;49648.78;;;-134.68
12409;BMP180;6268;48.188;17.134;2023-05-10T04:24:27;49646.84;;;-134.68
12409;BMP180;6268;48.188;17.134;2023-05-10T04:26:57;49648.78;;;-134.68
12409;BMP180;6268;48.188;17.134;2023-05-10T04:29:26;49648.78;;;-134.68
12409;BMP180;6268;48.188;17.134;2023-05-10T04:31:55;49648.78;;;-134.68
12409;BMP180;6268;48.188;17.134;2023-05-10T04:34:24;49646.84;;;-134.68
12409;BMP180;6268;48.188;17.134;2023-05-10T04:36:53;49648.78;;;-134.68
12409;BMP180;6268;48.188;17.134;2023-05-10T04:39:22;49644.88;;;-134.68
12409;BMP180;6268;48.188;17.134;2023-05-10T04:41:50;49650.72;;;-134.68
12409;BMP180;6268;48.188;17.134;2023-05-10T04:44:20;49646.84;;;-134.68
12409;BMP180;6268;48.188;17.134;2023-05-10T04:46:49;49646.84;;;-134.68
12409;BMP180;6268;48.188;17.134;2023-05-10T04:49:18;49650.72;;;-134.68
12409;BMP180;6268;48.188;17.134;2023-05-10T04:51:47;49650.72;;;-134.68
12409;BMP180;6268;48.188;17.134;2023-05-10T04:54:15;49652.66;;;-134.68
12409;BMP180;6268;48.188;17.134;2023-05-10T04:56:44;49648.78;;;-134.68
12409;BMP180;6268;48.188;17.134;2023-05-10T04:59:13;49650.72;;;-134.68
12409;BMP180;6268;48.188;17.134;2023-05-10T05:01:43;49652.66;;;-134.68
12409;BMP180;6268;48.188;17.134;2023-05-10T05:04:12;49650.72;;;-134.68
12409;BMP180;6268;48.188;17.134;2023-05-10T05:06:41;49648.78;;;-134.68
12409;BMP180;6268;48.188;17.134;2023-05-10T05:09:10;49650.72;;;-134.68
12409;BMP180;6268;48.188;17.134;2023-05-10T05:11:39;49650.72;;;-134.68
12409;BMP180;6268;48.188;17.134;2023-05-10T05:14:08;49650.72;;;-134.68
12409;BMP180;6268;48.188;17.134;2023-05-10T05:16:36;49648.78;;;-134.68
12409;BMP180;6268;48.188;17.134;2023-05-10T05:19:07;49652.66;;;-134.68
12409;BMP180;6268;48.188;17.134;2023-05-10T05:21:35;49650.72;;;-134.68
12409;BMP180;6268;48.188;17.134;2023-05-10T05:24:05;49652.66;;;-134.68
12409;BMP180;6268;48.188;17.134;2023-05-10T05:26:34;49654.59;;;-134.68
12409;BMP180;6268;48.188;17.134;2023-05-10T05:29:03;49652.66;;;-134.68
12409;BMP180;6268;48.188;17.134;2023-05-10T05:31:32;49650.72;;;-134.68
12409;BMP180;6268;48.188;17.134;2023-05-10T05:34:02;49652.66;;;-134.68
12409;BMP180;6268;48.188;17.134;2023-05-10T05:36:35;49654.59;;;-134.68
12409;BMP180;6268;48.188;17.134;2023-05-10T05:39:05;49650.72;;;-134.68
12409;BMP180;6268;48.188;17.134;2023-05-10T05:41:34;49650.72;;;-134.68
12409;BMP180;6268;48.188;17.134;2023-05-10T05:44:03;49652.66;;;-134.68
12409;BMP180;6268;48.188;17.134;2023-05-10T05:46:32;49650.72;;;-134.68
12409;BMP180;6268;48.188;17.134;2023-05-10T05:49:00;49652.66;;;-134.68
12409;BMP180;6268;48.188;17.134;2023-05-10T05:51:29;49654.59;;;-134.68
12409;BMP180;6268;48.188;17.134;2023-05-10T05:53:59;49652.66;;;-134.68
12409;BMP180;6268;48.188;17.134;2023-05-10T05:56:28;49650.72;;;-134.68
12409;BMP180;6268;48.188;17.134;2023-05-10T05:58:56;49646.84;;;-134.68
12409;BMP180;6268;48.188;17.134;2023-05-10T06:01:25;49652.66;;;-134.68
12409;BMP180;6268;48.188;17.134;2023-05-10T06:03:54;49648.78;;;-134.68
12409;BMP180;6268;48.188;17.134;2023-05-10T06:06:23;49650.72;;;-134.68
12409;BMP180;6268;48.188;17.134;2023-05-10T06:08:52;49650.72;;;-134.68
12409;BMP180;6268;48.188;17.134;2023-05-10T06:11:22;49648.78;;;-134.68
12409;BMP180;6268;48.188;17.134;2023-05-10T06:13:51;49652.66;;;-134.68
12409;BMP180;6268;48.188;17.134;2023-05-10T06:16:19;49650.72;;;-134.68
12409;BMP180;6268;48.188;17.134;2023-05-10T06:18:48;49648.78;;;-134.68
12409;BMP180;6268;48.188;17.134;2023-05-10T06:21:17;49650.72;;;-134.68
12409;BMP180;6268;48.188;17.134;2023-05-10T06:23:46;49648.78;;;-134.68
12409;BMP180;6268;48.188;17.134;2023-05-10T06:26:15;49650.72;;;-134.68
12409;BMP180;6268;48.188;17.134;2023-05-10T06:28:45;49648.78;;;-134.68
12409;BMP180;6268;48.188;17.134;2023-05-10T06:31:13;49650.72;;;-134.68
12409;BMP180;6268;48.188;17.134;2023-05-10T06:33:43;49648.78;;;-134.68
12409;BMP180;6268;48.188;17.134;2023-05-10T06:36:12;49648.78;;;-134.68
12409;BMP180;6268;48.188;17.134;2023-05-10T06:38:41;49650.72;;;-134.68
12409;BMP180;6268;48.188;17.134;2023-05-10T06:41:10;49648.78;;;-134.68
12409;BMP180;6268;48.188;17.134;2023-05-10T06:43:38;49650.72;;;-134.68
12409;BMP180;6268;48.188;17.134;2023-05-10T06:46:10;49650.72;;;-134.68
12409;BMP180;6268;48.188;17.134;2023-05-10T06:48:39;49650.72;;;-134.68
12409;BMP180;6268;48.188;17.134;2023-05-10T06:51:07;49650.72;;;-134.68
12409;BMP180;6268;48.188;17.134;2023-05-10T06:53:36;49648.78;;;-134.68
12409;BMP180;6268;48.188;17.134;2023-05-10T06:56:05;49650.72;;;-134.68
12409;BMP180;6268;48.188;17.134;2023-05-10T06:58:34;49650.72;;;-134.68
12409;BMP180;6268;48.188;17.134;2023-05-10T07:01:03;49650.72;;;-134.68
12409;BMP180;6268;48.188;17.134;2023-05-10T07:03:33;49650.72;;;-134.68
12409;BMP180;6268;48.188;17.134;2023-05-10T07:06:04;49648.78;;;-134.68
12409;BMP180;6268;48.188;17.134;2023-05-10T07:08:42;49650.72;;;-134.68
12409;BMP180;6268;48.188;17.134;2023-05-10T07:11:10;49650.72;;;-134.68
12409;BMP180;6268;48.188;17.134;2023-05-10T07:13:39;49652.66;;;-134.68
12409;BMP180;6268;48.188;17.134;2023-05-10T07:16:11;49650.72;;;-134.68
12409;BMP180;6268;48.188;17.134;2023-05-10T07:18:42;49650.72;;;-134.68
12409;BMP180;6268;48.188;17.134;2023-05-10T07:21:10;49652.66;;;-134.68
12409;BMP180;6268;48.188;17.134;2023-05-10T07:23:39;49650.72;;;-134.68
12409;BMP180;6268;48.188;17.134;2023-05-10T07:26:11;49650.72;;;-134.68
12409;BMP180;6268;48.188;17.134;2023-05-10T07:28:39;49652.66;;;-134.68
12409;BMP180;6268;48.188;17.134;2023-05-10T07:31:08;49654.59;;;-134.68
12409;BMP180;6268;48.188;17.134;2023-05-10T07:33:37;49650.72;;;-134.68
12409;BMP180;6268;48.188;17.134;2023-05-10T07:36:08;49646.84;;;-134.68
12409;BMP180;6268;48.188;17.134;2023-05-10T07:38:37;49652.66;;;-134.68
12409;BMP180;6268;48.188;17.134;2023-05-10T07:41:07;49648.78;;;-134.68
12409;BMP180;6268;48.188;17.134;2023-05-10T07:43:36;49650.72;;;-134.68
12409;BMP180;6268;48.188;17.134;2023-05-10T07:46:05;49652.66;;;-134.68
12409;BMP180;6268;48.188;17.134;2023-05-10T07:48:34;49652.66;;;-134.68
12409;BMP180;6268;48.188;17.134;2023-05-10T07:51:03;49652.66;;;-134.68
12409;BMP180;6268;48.188;17.134;2023-05-10T07:53:33;49650.72;;;-134.68
12409;BMP180;6268;48.188;17.134;2023-05-10T07:56:21;49650.72;;;-134.68
12409;BMP180;6268;48.188;17.134;2023-05-10T07:58:50;49654.59;;;-134.68
12409;BMP180;6268;48.188;17.134;2023-05-10T08:01:20;49652.66;;;-134.68
12409;BMP180;6268;48.188;17.134;2023-05-10T08:03:49;49652.66;;;-134.68
12409;BMP180;6268;48.188;17.134;2023-05-10T08:06:19;49654.59;;;-134.68
12409;BMP180;6268;48.188;17.134;2023-05-10T08:08:50;49652.66;;;-134.68
12409;BMP180;6268;48.188;17.134;2023-05-10T08:11:20;49652.66;;;-134.68
12409;BMP180;6268;48.188;17.134;2023-05-10T08:13:50;49654.59;;;-134.68
12409;BMP180;6268;48.188;17.134;2023-05-10T08:16:19;49654.59;;;-134.68
12409;BMP180;6268;48.188;17.134;2023-05-10T08:18:48;49654.59;;;-134.68
12409;BMP180;6268;48.188;17.134;2023-05-10T08:21:18;49652.66;;;-134.68
12409;BMP180;6268;48.188;17.134;2023-05-10T08:23:46;49654.59;;;-134.68
12409;BMP180;6268;48.188;17.134;2023-05-10T08:26:17;49652.66;;;-134.68
12409;BMP180;6268;48.188;17.134;2023-05-10T08:28:46;49650.72;;;-134.68
12409;BMP180;6268;48.188;17.134;2023-05-10T08:31:15;49650.72;;;-134.68
12409;BMP180;6268;48.188;17.134;2023-05-10T08:33:44;49652.66;;;-134.68
12409;BMP180;6268;48.188;17.134;2023-05-10T08:36:13;49650.72;;;-134.68
12409;BMP180;6268;48.188;17.134;2023-05-10T08:38:46;49652.66;;;-134.68
12409;BMP180;6268;48.188;17.134;2023-05-10T08:41:20;49654.59;;;-134.68
12409;BMP180;6268;48.188;17.134;2023-05-10T08:43:49;49650.72;;;-134.68
12409;BMP180;6268;48.188;17.134;2023-05-10T08:46:21;49652.66;;;-134.68
12409;BMP180;6268;48.188;17.134;2023-05-10T08:48:51;49654.59;;;-134.68
12409;BMP180;6268;48.188;17.134;2023-05-10T08:51:25;49650.72;;;-134.68
12409;BMP180;6268;48.188;17.134;2023-05-10T08:53:55;49650.72;;;-134.68
12409;BMP180;6268;48.188;17.134;2023-05-10T08:56:26;49650.72;;;-134.68
12409;BMP180;6268;48.188;17.134;2023-05-10T08:58:55;49650.72;;;-134.68
12409;BMP180;6268;48.188;17.134;2023-05-10T09:01:26;49654.59;;;-134.68
12409;BMP180;6268;48.188;17.134;2023-05-10T09:03:57;49654.59;;;-134.68
12409;BMP180;6268;48.188;17.134;2023-05-10T09:06:27;49650.72;;;-134.68
12409;BMP180;6268;48.188;17.134;2023-05-10T09:08:56;49648.78;;;-134.68
12409;BMP180;6268;48.188;17.134;2023-05-10T09:11:27;49656.53;;;-134.68
12409;BMP180;6268;48.188;17.134;2023-05-10T09:13:57;49650.72;;;-134.68
12409;BMP180;6268;48.188;17.134;2023-05-10T09:16:26;49648.78;;;-134.68
12409;BMP180;6268;48.188;17.134;2023-05-10T09:18:54;49650.72;;;-134.68
12409;BMP180;6268;48.188;17.134;2023-05-10T09:21:23;49650.72;;;-134.68
12409;BMP180;6268;48.188;17.134;2023-05-10T09:23:52;49654.59;;;-134.68
12409;BMP180;6268;48.188;17.134;2023-05-10T09:26:26;49650.72;;;-134.68
12409;BMP180;6268;48.188;17.134;2023-05-10T09:28:57;49650.72;;;-134.68
12409;BMP180;6268;48.188;17.134;2023-05-10T09:31:45;49650.72;;;-134.68
12409;BMP180;6268;48.188;17.134;2023-05-10T09:34:20;49650.72;;;-134.68
12409;BMP180;6268;48.188;17.134;2023-05-10T09:36:53;49650.72;;;-134.68
12409;BMP180;6268;48.188;17.134;2023-05-10T09:39:34;49648.78;;;-134.68
12409;BMP180;6268;48.188;17.134;2023-05-10T09:42:06;49650.72;;;-134.68
12409;BMP180;6268;48.188;17.134;2023-05-10T09:44:36;49650.72;;;-134.68
12409;BMP180;6268;48.188;17.134;2023-05-10T09:47:05;49652.66;;;-134.68
12409;BMP180;6268;48.188;17.134;2023-05-10T09:49:34;49648.78;;;-134.68
12409;BMP180;6268;48.188;17.134;2023-05-10T09:52:05;49650.72;;;-134.68
12409;BMP180;6268;48.188;17.134;2023-05-10T09:54:34;49650.72;;;-134.68
12409;BMP180;6268;48.188;17.134;2023-05-10T09:57:04;49652.66;;;-134.68
12409;BMP180;6268;48.188;17.134;2023-05-10T09:59:33;49652.66;;;-134.68
12409;BMP180;6268;48.188;17.134;2023-05-10T10:02:03;49650.72;;;-134.68
12409;BMP180;6268;48.188;17.134;2023-05-10T10:04:32;49652.66;;;-134.68
12409;BMP180;6268;48.188;17.134;2023-05-10T10:07:07;49650.72;;;-134.68
12409;BMP180;6268;48.188;17.134;2023-05-10T10:09:36;49650.72;;;-134.68
12409;BMP180;6268;48.188;17.134;2023-05-10T10:12:06;49648.78;;;-134.68
12409;BMP180;6268;48.188;17.134;2023-05-10T10:14:36;49650.72;;;-134.68
12409;BMP180;6268;48.188;17.134;2023-05-10T10:17:04;49650.72;;;-134.68
12409;BMP180;6268;48.188;17.134;2023-05-10T10:19:35;49650.72;;;-134.68
12409;BMP180;6268;48.188;17.134;2023-05-10T10:22:05;49650.72;;;-134.68
12409;BMP180;6268;48.188;17.134;2023-05-10T10:24:34;49652.66;;;-134.68
12409;BMP180;6268;48.188;17.134;2023-05-10T10:27:18;49652.66;;;-134.68
12409;BMP180;6268;48.188;17.134;2023-05-10T10:30:06;49650.72;;;-134.68
12409;BMP180;6268;48.188;17.134;2023-05-10T10:33:06;49650.72;;;-134.68
12409;BMP180;6268;48.188;17.134;2023-05-10T10:35:55;49646.84;;;-134.68
12409;BMP180;6268;48.188;17.134;2023-05-10T10:38:36;49648.78;;;-134.68
12409;BMP180;6268;48.188;17.134;2023-05-10T10:41:27;49650.72;;;-134.68
12409;BMP180;6268;48.188;17.134;2023-05-10T10:44:33;49650.72;;;-134.68
12409;BMP180;6268;48.188;17.134;2023-05-10T10:47:20;49648.78;;;-134.68
12409;BMP180;6268;48.188;17.134;2023-05-10T10:50:03;49650.72;;;-134.68
12409;BMP180;6268;48.188;17.134;2023-05-10T10:52:34;49650.72;;;-134.68
12409;BMP180;6268;48.188;17.134;2023-05-10T10:55:06;49648.78;;;-134.68
12409;BMP180;6268;48.188;17.134;2023-05-10T10:57:47;49650.72;;;-134.68
12409;BMP180;6268;48.188;17.134;2023-05-10T11:00:35;49654.59;;;-134.68
12409;BMP180;6268;48.188;17.134;2023-05-10T11:03:07;49650.72;;;-134.68
12409;BMP180;6268;48.188;17.134;2023-05-10T11:05:42;49652.66;;;-134.68
12409;BMP180;6268;48.188;17.134;2023-05-10T11:08:17;49654.59;;;-134.68
12409;BMP180;6268;48.188;17.134;2023-05-10T11:11:05;49650.72;;;-134.68
12409;BMP180;6268;48.188;17.134;2023-05-10T11:13:42;49652.66;;;-134.68
12409;BMP180;6268;48.188;17.134;2023-05-10T11:16:20;49652.66;;;-134.68
12409;BMP180;6268;48.188;17.134;2023-05-10T11:19:01;49650.72;;;-134.68
12409;BMP180;6268;48.188;17.134;2023-05-10T11:21:31;49650.72;;;-134.68
12409;BMP180;6268;48.188;17.134;2023-05-10T11:24:01;49648.78;;;-134.68
12409;BMP180;6268;48.188;17.134;2023-05-10T11:26:35;49652.66;;;-134.68
12409;BMP180;6268;48.188;17.134;2023-05-10T11:29:04;49648.78;;;-134.68
12409;BMP180;6268;48.188;17.134;2023-05-10T11:31:35;49648.78;;;-134.68
12409;BMP180;6268;48.188;17.134;2023-05-10T11:34:03;49650.72;;;-134.68
12409;BMP180;6268;48.188;17.134;2023-05-10T11:36:35;49650.72;;;-134.68
12409;BMP180;6268;48.188;17.134;2023-05-10T11:39:05;49648.78;;;-134.68
12409;BMP180;6268;48.188;17.134;2023-05-10T11:41:34;49650.72;;;-134.68
12409;BMP180;6268;48.188;17.134;2023-05-10T11:44:03;49650.72;;;-134.68
12409;BMP180;6268;48.188;17.134;2023-05-10T11:46:33;49650.72;;;-134.68
12409;BMP180;6268;48.188;17.134;2023-05-10T11:49:02;49650.72;;;-134.68
12409;BMP180;6268;48.188;17.134;2023-05-10T11:51:35;49654.59;;;-134.68
12409;BMP180;6268;48.188;17.134;2023-05-10T11:54:07;49648.78;;;-134.68
12409;BMP180;6268;48.188;17.134;2023-05-10T11:56:37;49650.72;;;-134.68
12409;BMP180;6268;48.188;17.134;2023-05-10T11:59:06;49650.72;;;-134.68
12409;BMP180;6268;48.188;17.134;2023-05-10T12:01:37;49650.72;;;-134.68
12409;BMP180;6268;48.188;17.134;2023-05-10T12:04:06;49646.84;;;-134.68
12409;BMP180;6268;48.188;17.134;2023-05-10T12:06:40;49650.72;;;-134.68
12409;BMP180;6268;48.188;17.134;2023-05-10T12:09:09;49650.72;;;-134.68
12409;BMP180;6268;48.188;17.134;2023-05-10T12:11:39;49654.59;;;-134.68
12409;BMP180;6268;48.188;17.134;2023-05-10T12:14:11;49648.78;;;-134.68
12409;BMP180;6268;48.188;17.134;2023-05-10T12:16:43;49650.72;;;-134.68
12409;BMP180;6268;48.188;17.134;2023-05-10T12:19:12;49650.72;;;-134.68
12409;BMP180;6268;48.188;17.134;2023-05-10T12:21:41;49654.59;;;-134.68
12409;BMP180;6268;48.188;17.134;2023-05-10T12:24:10;49650.72;;;-134.68
12409;BMP180;6268;48.188;17.134;2023-05-10T12:26:39;49648.78;;;-134.68
12409;BMP180;6268;48.188;17.134;2023-05-10T12:29:25;49650.72;;;-134.68
12409;BMP180;6268;48.188;17.134;2023-05-10T12:32:00;49650.72;;;-134.68
12409;BMP180;6268;48.188;17.134;2023-05-10T12:34:32;49648.78;;;-134.68
12409;BMP180;6268;48.188;17.134;2023-05-10T12:37:02;49650.72;;;-134.68
12409;BMP180;6268;48.188;17.134;2023-05-10T12:39:42;49650.72;;;-134.68
12409;BMP180;6268;48.188;17.134;2023-05-10T12:42:11;49650.72;;;-134.68
12409;BMP180;6268;48.188;17.134;2023-05-10T12:44:40;49652.66;;;-134.68
12409;BMP180;6268;48.188;17.134;2023-05-10T12:47:10;49652.66;;;-134.68
12409;BMP180;6268;48.188;17.134;2023-05-10T12:49:39;49652.66;;;-134.68
12409;BMP180;6268;48.188;17.134;2023-05-10T12:52:07;49650.72;;;-134.68
12409;BMP180;6268;48.188;17.134;2023-05-10T12:54:36;49654.59;;;-134.68
12409;BMP180;6268;48.188;17.134;2023-05-10T12:57:05;49652.66;;;-134.68
12409;BMP180;6268;48.188;17.134;2023-05-10T12:59:33;49650.72;;;-134.68
12409;BMP180;6268;48.188;17.134;2023-05-10T13:02:04;49652.66;;;-134.68
12409;BMP180;6268;48.188;17.134;2023-05-10T13:04:34;49652.66;;;-134.68
12409;BMP180;6268;48.188;17.134;2023-05-10T13:07:05;49650.72;;;-134.68
12409;BMP180;6268;48.188;17.134;2023-05-10T13:09:33;49650.72;;;-134.68
12409;BMP180;6268;48.188;17.134;2023-05-10T13:12:03;49650.72;;;-134.68
12409;BMP180;6268;48.188;17.134;2023-05-10T13:14:33;49650.72;;;-134.68
12409;BMP180;6268;48.188;17.134;2023-05-10T13:17:02;49652.66;;;-134.68
12409;BMP180;6268;48.188;17.134;2023-05-10T13:19:31;49650.72;;;-134.68
12409;BMP180;6268;48.188;17.134;2023-05-10T13:22:01;49652.66;;;-134.68
12409;BMP180;6268;48.188;17.134;2023-05-10T13:24:30;49652.66;;;-134.68
12409;BMP180;6268;48.188;17.134;2023-05-10T13:26:58;49652.66;;;-134.68
12409;BMP180;6268;48.188;17.134;2023-05-10T13:29:27;49654.59;;;-134.68
12409;BMP180;6268;48.188;17.134;2023-05-10T13:31:56;49652.66;;;-134.68
12409;BMP180;6268;48.188;17.134;2023-05-10T13:34:25;49650.72;;;-134.68
12409;BMP180;6268;48.188;17.134;2023-05-10T13:36:54;49648.78;;;-134.68
12409;BMP180;6268;48.188;17.134;2023-05-10T13:39:24;49650.72;;;-134.68
12409;BMP180;6268;48.188;17.134;2023-05-10T13:41:53;49652.66;;;-134.68
12409;BMP180;6268;48.188;17.134;2023-05-10T13:44:22;49650.72;;;-134.68
12409;BMP180;6268;48.188;17.134;2023-05-10T13:46:50;49652.66;;;-134.68
12409;BMP180;6268;48.188;17.134;2023-05-10T13:49:19;49650.72;;;-134.68
12409;BMP180;6268;48.188;17.134;2023-05-10T13:51:51;49652.66;;;-134.68
12409;BMP180;6268;48.188;17.134;2023-05-10T13:54:20;49650.72;;;-134.68
12409;BMP180;6268;48.188;17.134;2023-05-10T13:56:50;49650.72;;;-134.68
12409;BMP180;6268;48.188;17.134;2023-05-10T13:59:19;49652.66;;;-134.68
12409;BMP180;6268;48.188;17.134;2023-05-10T14:01:48;49648.78;;;-134.68
12409;BMP180;6268;48.188;17.134;2023-05-10T14:04:16;49650.72;;;-134.68
12409;BMP180;6268;48.188;17.134;2023-05-10T14:06:45;49652.66;;;-134.68
12409;BMP180;6268;48.188;17.134;2023-05-10T14:09:14;49654.59;;;-134.68
12409;BMP180;6268;48.188;17.134;2023-05-10T14:11:43;49654.59;;;-134.68